createdAt,value
2023-02-24T00:00:29.470Z,99440.31
2023-02-24T00:01:25.141Z,99431.75
2023-02-24T00:02:15.249Z,99436.75
2023-02-24T00:03:06.682Z,99430.50
2023-02-24T00:03:58.094Z,99435.31
2023-02-24T00:04:45.841Z,99426.97
2023-02-24T00:05:39.375Z,99426.53
2023-02-24T00:06:36.229Z,99422.19
2023-02-24T00:07:23.241Z,99423.84
2023-02-24T00:08:10.415Z,99420.06
2023-02-24T00:08:57.292Z,99429.75
2023-02-24T00:09:49.190Z,99414.41
2023-02-24T00:10:37.810Z,99423.59
2023-02-24T00:11:24.762Z,99410.00
2023-02-24T00:12:14.367Z,99418.44
2023-02-24T00:13:01.281Z,99415.88
2023-02-24T00:13:48.477Z,99419.06
2023-02-24T00:14:41.486Z,99408.22
2023-02-24T00:15:28.443Z,99408.22
2023-02-24T00:16:19.995Z,99405.91
2023-02-24T00:17:10.645Z,99407.78
2023-02-24T00:17:58.607Z,99407.31
2023-02-24T00:18:46.143Z,99399.63
2023-02-24T00:19:33.053Z,99400.25
2023-02-24T00:20:20.110Z,99403.38
2023-02-24T00:21:15.678Z,99395.28
2023-02-24T00:22:04.101Z,99401.22
2023-02-24T00:22:51.141Z,99397.88
2023-02-24T00:23:38.565Z,99393.06
2023-02-24T00:24:25.821Z,99392.84
2023-02-24T00:25:12.852Z,99396.63
2023-02-24T00:26:03.043Z,99394.72
2023-02-24T00:26:59.583Z,99395.72
2023-02-24T00:27:46.549Z,99395.91
2023-02-24T00:28:36.048Z,99387.12
2023-02-24T00:29:24.389Z,99390.28
2023-02-24T00:30:12.246Z,99388.84
2023-02-24T00:31:06.096Z,99390.59
2023-02-24T00:32:01.440Z,99386.91
2023-02-24T00:32:48.723Z,99388.28
2023-02-24T00:33:35.706Z,99385.34
2023-02-24T00:34:22.844Z,99390.31
2023-02-24T00:35:09.974Z,99384.75
2023-02-24T00:36:05.157Z,99383.91
2023-02-24T00:36:52.036Z,99390.72
2023-02-24T00:37:38.908Z,99388.03
2023-02-24T00:38:25.916Z,99385.56
2023-02-24T00:39:13.889Z,99389.56
2023-02-24T00:40:00.817Z,99384.97
2023-02-24T00:40:48.551Z,99390.78
2023-02-24T00:41:37.440Z,99379.06
2023-02-24T00:42:24.680Z,99380.31
2023-02-24T00:43:12.847Z,99385.97
2023-02-24T00:44:06.819Z,99389.03
2023-02-24T00:44:54.321Z,99376.00
2023-02-24T00:45:41.250Z,99378.69
2023-02-24T00:46:31.853Z,99385.75
2023-02-24T00:47:18.684Z,99378.69
2023-02-24T00:48:06.623Z,99379.28
2023-02-24T00:48:55.490Z,99373.63
2023-02-24T00:49:43.645Z,99377.38
2023-02-24T00:50:31.530Z,99374.66
2023-02-24T00:51:25.670Z,99378.66
2023-02-24T00:52:19.517Z,99372.56
2023-02-24T00:53:06.943Z,99367.16
2023-02-24T00:53:57.180Z,99373.84
2023-02-24T00:54:45.315Z,99372.78
2023-02-24T00:55:36.560Z,99367.22
2023-02-24T00:56:25.503Z,99371.97
2023-02-24T00:57:12.827Z,99370.09
2023-02-24T00:57:59.715Z,99370.41
2023-02-24T00:58:46.591Z,99369.13
2023-02-24T00:59:33.471Z,99371.50
2023-02-24T01:00:20.732Z,99368.16
2023-02-24T01:01:23.959Z,99366.69
2023-02-24T01:02:11.661Z,99362.78
2023-02-24T01:02:59.589Z,99362.00
2023-02-24T01:03:49.295Z,99369.72
2023-02-24T01:04:37.949Z,99362.50
2023-02-24T01:05:28.150Z,99363.97
2023-02-24T01:06:15.798Z,99360.50
2023-02-24T01:07:02.851Z,99349.72
2023-02-24T01:07:49.773Z,99353.19
2023-02-24T01:08:40.366Z,99358.13
2023-02-24T01:09:28.239Z,99351.66
2023-02-24T01:10:15.220Z,99349.66
2023-02-24T01:11:21.629Z,99346.56
2023-02-24T01:12:29.402Z,99343.50
2023-02-24T01:13:16.358Z,99347.94
2023-02-24T01:14:15.187Z,99344.00
2023-02-24T01:15:03.308Z,99338.22
2023-02-24T01:15:50.229Z,99336.53
2023-02-24T01:16:37.277Z,99336.53
2023-02-24T01:17:25.657Z,99339.69
2023-02-24T01:18:12.640Z,99341.16
2023-02-24T01:18:59.565Z,99337.63
2023-02-24T01:19:49.587Z,99341.56
2023-02-24T01:20:38.704Z,99336.16
2023-02-24T01:21:25.806Z,99339.09
2023-02-24T01:22:15.238Z,99338.69
2023-02-24T01:23:03.644Z,99329.41
2023-02-24T01:23:51.385Z,99337.94
2023-02-24T01:24:41.451Z,99332.78
2023-02-24T01:25:31.541Z,99333.59
2023-02-24T01:26:19.447Z,99327.16
2023-02-24T01:27:06.762Z,99329.22
2023-02-24T01:27:54.228Z,99323.22
2023-02-24T01:28:41.101Z,99321.13
2023-02-24T01:29:28.201Z,99323.63
2023-02-24T01:30:16.426Z,99319.09
2023-02-24T01:31:05.545Z,99321.53
2023-02-24T01:31:53.119Z,99318.47
2023-02-24T01:32:40.901Z,99312.00
2023-02-24T01:33:28.299Z,99314.69
2023-02-24T01:34:15.199Z,99309.72
2023-02-24T01:35:02.119Z,99313.94
2023-02-24T01:35:49.017Z,99310.09
2023-02-24T01:36:35.925Z,99316.00
2023-02-24T01:37:22.829Z,99313.53
2023-02-24T01:38:11.419Z,99307.78
2023-02-24T01:38:59.752Z,99308.78
2023-02-24T01:39:47.383Z,99310.31
2023-02-24T01:40:34.392Z,99309.03
2023-02-24T01:41:31.400Z,99305.91
2023-02-24T01:42:20.336Z,99308.19
2023-02-24T01:43:09.096Z,99310.75
2023-02-24T01:43:58.988Z,99310.56
2023-02-24T01:44:46.091Z,99305.16
2023-02-24T01:45:36.965Z,99308.91
2023-02-24T01:46:23.919Z,99300.34
2023-02-24T01:47:11.396Z,99296.19
2023-02-24T01:48:01.566Z,99302.75
2023-02-24T01:48:48.514Z,99304.69
2023-02-24T01:49:39.314Z,99306.94
2023-02-24T01:50:27.393Z,99305.63
2023-02-24T01:51:14.280Z,99292.34
2023-02-24T01:52:09.068Z,99298.84
2023-02-24T01:53:00.658Z,99297.38
2023-02-24T01:53:48.238Z,99295.34
2023-02-24T01:54:47.298Z,99297.78
2023-02-24T01:55:38.952Z,99293.78
2023-02-24T01:56:25.853Z,99283.22
2023-02-24T01:57:16.925Z,99294.28
2023-02-24T01:58:13.553Z,99297.38
2023-02-24T01:59:01.946Z,99293.22
2023-02-24T01:59:51.965Z,99294.66
2023-02-24T02:00:45.468Z,99287.16
2023-02-24T02:01:40.735Z,99293.44
2023-02-24T02:02:27.937Z,99286.19
2023-02-24T02:03:24.432Z,99291.38
2023-02-24T02:04:44.241Z,99287.63
2023-02-24T02:05:31.194Z,99286.56
2023-02-24T02:06:18.221Z,99289.47
2023-02-24T02:07:05.558Z,99287.28
2023-02-24T02:07:53.346Z,99280.56
2023-02-24T02:08:44.539Z,99285.53
2023-02-24T02:09:31.973Z,99282.84
2023-02-24T02:10:18.953Z,99284.13
2023-02-24T02:11:09.367Z,99287.88
2023-02-24T02:11:56.276Z,99286.41
2023-02-24T02:12:47.193Z,99283.94
2023-02-24T02:13:36.085Z,99280.62
2023-02-24T02:14:26.164Z,99286.41
2023-02-24T02:15:15.191Z,99282.06
2023-02-24T02:16:28.094Z,99278.22
2023-02-24T02:17:17.834Z,99274.94
2023-02-24T02:18:33.476Z,99288.50
2023-02-24T02:19:40.024Z,99278.34
2023-02-24T02:20:39.234Z,99285.88
2023-02-24T02:22:02.597Z,99284.06
2023-02-24T02:23:17.316Z,99285.69
2023-02-24T02:24:53.243Z,99284.44
2023-02-24T02:26:03.278Z,99273.16
2023-02-24T02:27:11.819Z,99277.06
2023-02-24T02:28:20.154Z,99275.91
2023-02-24T02:29:15.855Z,99282.47
2023-02-24T02:30:21.342Z,99269.63
2023-02-24T02:31:29.213Z,99277.72
2023-02-24T02:32:34.816Z,99271.53
2023-02-24T02:33:49.864Z,99277.63
2023-02-24T02:34:50.502Z,99273.19
2023-02-24T02:35:59.600Z,99270.97
2023-02-24T02:36:56.351Z,99275.31
2023-02-24T02:37:52.878Z,99278.72
2023-02-24T02:38:52.190Z,99272.06
2023-02-24T02:39:49.867Z,99268.91
2023-02-24T02:40:41.240Z,99274.69
2023-02-24T02:41:31.514Z,99268.75
2023-02-24T02:42:41.183Z,99276.25
2023-02-24T02:43:38.484Z,99276.31
2023-02-24T02:44:40.302Z,99269.91
2023-02-24T02:45:35.932Z,99268.34
2023-02-24T02:46:37.609Z,99267.56
2023-02-24T02:47:35.270Z,99267.56
2023-02-24T02:48:48.911Z,99262.63
2023-02-24T02:49:45.733Z,99258.25
2023-02-24T02:50:43.677Z,99259.25
2023-02-24T02:51:33.658Z,99273.88
2023-02-24T02:52:30.270Z,99262.00
2023-02-24T02:53:27.049Z,99264.38
2023-02-24T02:54:19.452Z,99266.88
2023-02-24T02:55:14.798Z,99255.91
2023-02-24T02:56:08.810Z,99259.63
2023-02-24T02:57:06.428Z,99265.25
2023-02-24T02:57:55.416Z,99265.69
2023-02-24T02:58:47.098Z,99266.97
2023-02-24T02:59:36.959Z,99260.06
2023-02-24T03:00:29.648Z,99266.53
2023-02-24T03:01:18.822Z,99261.84
2023-02-24T03:02:13.559Z,99263.72
2023-02-24T03:03:12.856Z,99262.91
2023-02-24T03:04:04.951Z,99257.66
2023-02-24T03:04:53.587Z,99256.38
2023-02-24T03:05:47.238Z,99260.44
2023-02-24T03:06:39.588Z,99261.22
2023-02-24T03:07:31.461Z,99261.22
2023-02-24T03:08:25.920Z,99265.41
2023-02-24T03:09:26.333Z,99267.00
2023-02-24T03:10:21.199Z,99257.06
2023-02-24T03:11:11.566Z,99262.72
2023-02-24T03:12:04.837Z,99253.41
2023-02-24T03:12:54.417Z,99258.06
2023-02-24T03:13:43.457Z,99263.97
2023-02-24T03:14:37.768Z,99261.78
2023-02-24T03:15:27.330Z,99253.63
2023-02-24T03:16:15.054Z,99258.97
2023-02-24T03:17:04.791Z,99260.91
2023-02-24T03:17:55.934Z,99262.22
2023-02-24T03:18:53.998Z,99253.84
2023-02-24T03:19:42.009Z,99261.53
2023-02-24T03:20:33.889Z,99263.19
2023-02-24T03:21:38.176Z,99261.59
2023-02-24T03:22:34.786Z,99260.31
2023-02-24T03:23:27.072Z,99258.44
2023-02-24T03:24:15.774Z,99255.19
2023-02-24T03:25:05.340Z,99256.88
2023-02-24T03:25:58.897Z,99252.44
2023-02-24T03:26:55.620Z,99254.53
2023-02-24T03:28:29.699Z,99259.25
2023-02-24T03:29:24.304Z,99254.87
2023-02-24T03:30:35.930Z,99257.44
2023-02-24T03:31:33.353Z,99244.97
2023-02-24T03:32:33.943Z,99259.47
2023-02-24T03:33:30.028Z,99258.97
2023-02-24T03:34:25.280Z,99257.31
2023-02-24T03:35:18.169Z,99262.37
2023-02-24T03:36:05.957Z,99250.12
2023-02-24T03:36:54.621Z,99256.03
2023-02-24T03:37:41.539Z,99245.91
2023-02-24T03:38:30.769Z,99247.81
2023-02-24T03:39:17.766Z,99250.56
2023-02-24T03:40:11.743Z,99253.22
2023-02-24T03:40:59.390Z,99242.16
2023-02-24T03:41:56.459Z,99251.16
2023-02-24T03:42:58.689Z,99239.53
2023-02-24T03:43:47.350Z,99247.56
2023-02-24T03:44:34.451Z,99245.09
2023-02-24T03:45:23.330Z,99244.56
2023-02-24T03:46:10.311Z,99246.59
2023-02-24T03:46:57.241Z,99243.19
2023-02-24T03:47:47.657Z,99242.56
2023-02-24T03:48:35.230Z,99249.41
2023-02-24T03:49:25.552Z,99247.88
2023-02-24T03:50:19.045Z,99254.09
2023-02-24T03:51:05.991Z,99244.25
2023-02-24T03:52:14.369Z,99242.44
2023-02-24T03:53:31.245Z,99250.59
2023-02-24T03:54:43.940Z,99247.25
2023-02-24T03:55:58.933Z,99245.19
2023-02-24T03:56:57.057Z,99249.00
2023-02-24T03:57:55.431Z,99243.84
2023-02-24T03:58:52.407Z,99250.94
2023-02-24T03:59:45.449Z,99246.09
2023-02-24T04:00:44.910Z,99246.31
2023-02-24T04:01:39.706Z,99247.53
2023-02-24T04:02:30.745Z,99243.69
2023-02-24T04:03:25.924Z,99243.75
2023-02-24T04:04:40.214Z,99237.47
2023-02-24T04:05:29.518Z,99250.56
2023-02-24T04:06:26.094Z,99246.03
2023-02-24T04:07:31.171Z,99245.63
2023-02-24T04:08:20.429Z,99244.97
2023-02-24T04:09:20.394Z,99234.84
2023-02-24T04:10:10.436Z,99238.00
2023-02-24T04:11:13.389Z,99236.94
2023-02-24T04:12:22.342Z,99240.69
2023-02-24T04:13:23.010Z,99230.28
2023-02-24T04:14:18.865Z,99240.75
2023-02-24T04:15:16.827Z,99234.06
2023-02-24T04:16:18.557Z,99236.81
2023-02-24T04:17:14.347Z,99233.88
2023-02-24T04:18:04.935Z,99237.28
2023-02-24T04:18:52.478Z,99237.03
2023-02-24T04:19:40.778Z,99232.06
2023-02-24T04:20:31.239Z,99232.69
2023-02-24T04:21:20.446Z,99235.41
2023-02-24T04:22:10.721Z,99232.19
2023-02-24T04:23:02.605Z,99230.13
2023-02-24T04:23:50.050Z,99227.84
2023-02-24T04:24:38.329Z,99225.47
2023-02-24T04:25:26.120Z,99228.44
2023-02-24T04:26:14.518Z,99226.75
2023-02-24T04:27:02.518Z,99226.63
2023-02-24T04:27:49.466Z,99219.22
2023-02-24T04:28:36.508Z,99220.00
2023-02-24T04:29:24.274Z,99220.22
2023-02-24T04:30:12.529Z,99220.03
2023-02-24T04:31:06.218Z,99220.00
2023-02-24T04:32:01.752Z,99220.94
2023-02-24T04:32:49.828Z,99213.91
2023-02-24T04:33:39.725Z,99223.91
2023-02-24T04:34:29.752Z,99218.97
2023-02-24T04:35:20.706Z,99219.34
2023-02-24T04:36:09.292Z,99218.81
2023-02-24T04:36:56.173Z,99213.19
2023-02-24T04:37:45.906Z,99219.03
2023-02-24T04:38:33.027Z,99215.47
2023-02-24T04:39:21.067Z,99210.25
2023-02-24T04:40:11.827Z,99213.12
2023-02-24T04:40:58.729Z,99206.81
2023-02-24T04:41:49.518Z,99206.72
2023-02-24T04:42:41.167Z,99210.28
2023-02-24T04:43:29.708Z,99209.50
2023-02-24T04:44:21.241Z,99208.09
2023-02-24T04:45:13.115Z,99198.84
2023-02-24T04:45:59.987Z,99204.19
2023-02-24T04:46:47.925Z,99203.84
2023-02-24T04:47:37.440Z,99199.38
2023-02-24T04:48:24.325Z,99202.25
2023-02-24T04:49:11.888Z,99205.81
2023-02-24T04:49:58.766Z,99203.50
2023-02-24T04:50:45.928Z,99205.63
2023-02-24T04:51:34.199Z,99200.44
2023-02-24T04:52:21.398Z,99203.78
2023-02-24T04:53:13.573Z,99202.56
2023-02-24T04:54:00.469Z,99194.88
2023-02-24T04:54:48.302Z,99205.84
2023-02-24T04:55:43.973Z,99201.56
2023-02-24T04:56:30.898Z,99205.47
2023-02-24T04:57:17.791Z,99203.97
2023-02-24T04:58:04.716Z,99203.91
2023-02-24T04:58:51.600Z,99196.91
2023-02-24T04:59:38.423Z,99200.84
2023-02-24T05:00:27.000Z,99200.56
2023-02-24T05:01:13.891Z,99202.13
2023-02-24T05:02:01.857Z,99198.50
2023-02-24T05:02:52.391Z,99200.34
2023-02-24T05:03:43.514Z,99192.66
2023-02-24T05:04:31.744Z,99195.78
2023-02-24T05:05:28.893Z,99200.56
2023-02-24T05:06:17.924Z,99198.09
2023-02-24T05:07:05.138Z,99195.69
2023-02-24T05:07:53.530Z,99187.31
2023-02-24T05:08:40.708Z,99198.16
2023-02-24T05:09:30.351Z,99195.94
2023-02-24T05:10:18.775Z,99193.50
2023-02-24T05:11:05.832Z,99198.88
2023-02-24T05:11:53.011Z,99194.75
2023-02-24T05:12:40.213Z,99196.03
2023-02-24T05:13:29.020Z,99193.13
2023-02-24T05:14:18.350Z,99181.16
2023-02-24T05:15:06.521Z,99194.16
2023-02-24T05:15:54.871Z,99185.97
2023-02-24T05:16:46.877Z,99191.59
2023-02-24T05:17:33.917Z,99189.94
2023-02-24T05:18:21.097Z,99193.03
2023-02-24T05:19:26.493Z,99193.91
2023-02-24T05:20:32.227Z,99188.59
2023-02-24T05:21:37.525Z,99186.72
2023-02-24T05:22:24.483Z,99187.25
2023-02-24T05:23:11.555Z,99181.16
2023-02-24T05:23:59.580Z,99178.44
2023-02-24T05:24:48.223Z,99180.13
2023-02-24T05:25:37.891Z,99181.28
2023-02-24T05:26:25.870Z,99182.03
2023-02-24T05:27:12.775Z,99181.06
2023-02-24T05:27:59.633Z,99177.87
2023-02-24T05:28:52.462Z,99177.03
2023-02-24T05:29:40.644Z,99182.41
2023-02-24T05:30:27.654Z,99182.81
2023-02-24T05:31:17.337Z,99179.34
2023-02-24T05:32:05.827Z,99185.09
2023-02-24T05:32:54.497Z,99186.50
2023-02-24T05:33:43.353Z,99177.16
2023-02-24T05:34:31.654Z,99196.09
2023-02-24T05:35:19.712Z,99183.28
2023-02-24T05:36:09.584Z,99173.44
2023-02-24T05:36:58.384Z,99172.91
2023-02-24T05:37:45.264Z,99175.63
2023-02-24T05:38:32.644Z,99183.97
2023-02-24T05:39:20.641Z,99170.69
2023-02-24T05:40:10.429Z,99167.81
2023-02-24T05:41:08.653Z,99179.13
2023-02-24T05:41:57.446Z,99184.72
2023-02-24T05:42:45.482Z,99178.13
2023-02-24T05:43:32.460Z,99181.47
2023-02-24T05:44:23.072Z,99181.19
2023-02-24T05:45:11.328Z,99188.78
2023-02-24T05:46:05.006Z,99179.00
2023-02-24T05:47:03.095Z,99181.34
2023-02-24T05:47:50.198Z,99180.00
2023-02-24T05:48:37.271Z,99184.91
2023-02-24T05:49:29.330Z,99182.88
2023-02-24T05:50:17.427Z,99187.44
2023-02-24T05:51:08.451Z,99184.22
2023-02-24T05:52:01.089Z,99180.13
2023-02-24T05:52:48.703Z,99177.87
2023-02-24T05:53:36.427Z,99186.09
2023-02-24T05:54:23.591Z,99174.84
2023-02-24T05:55:14.200Z,99177.87
2023-02-24T05:56:01.473Z,99181.62
2023-02-24T05:56:48.622Z,99181.19
2023-02-24T05:57:38.359Z,99181.19
2023-02-24T05:58:27.058Z,99179.13
2023-02-24T05:59:18.336Z,99179.78
2023-02-24T06:00:13.022Z,99185.31
2023-02-24T06:01:07.017Z,99182.41
2023-02-24T06:01:54.051Z,99179.06
2023-02-24T06:02:47.215Z,99187.50
2023-02-24T06:03:35.826Z,99181.59
2023-02-24T06:04:39.537Z,99176.59
2023-02-24T06:05:26.719Z,99182.62
2023-02-24T06:06:15.334Z,99184.72
2023-02-24T06:07:03.978Z,99185.16
2023-02-24T06:07:51.270Z,99184.09
2023-02-24T06:08:50.278Z,99189.03
2023-02-24T06:09:40.360Z,99177.66
2023-02-24T06:10:27.861Z,99184.03
2023-02-24T06:11:19.003Z,99178.87
2023-02-24T06:12:06.541Z,99190.12
2023-02-24T06:12:55.118Z,99183.06
2023-02-24T06:13:47.786Z,99184.53
2023-02-24T06:14:34.681Z,99182.56
2023-02-24T06:15:21.600Z,99180.69
2023-02-24T06:16:08.804Z,99179.66
2023-02-24T06:16:55.715Z,99172.88
2023-02-24T06:17:43.820Z,99185.63
2023-02-24T06:18:30.709Z,99181.41
2023-02-24T06:19:17.716Z,99182.34
2023-02-24T06:20:15.841Z,99182.69
2023-02-24T06:21:03.727Z,99180.88
2023-02-24T06:21:52.888Z,99182.00
2023-02-24T06:22:42.649Z,99175.47
2023-02-24T06:23:29.622Z,99185.63
2023-02-24T06:24:18.252Z,99183.19
2023-02-24T06:25:05.556Z,99188.44
2023-02-24T06:25:53.517Z,99182.81
2023-02-24T06:26:43.760Z,99179.13
2023-02-24T06:27:32.706Z,99181.50
2023-02-24T06:28:20.239Z,99180.03
2023-02-24T06:29:08.011Z,99176.72
2023-02-24T06:29:55.454Z,99173.84
2023-02-24T06:30:42.377Z,99176.94
2023-02-24T06:31:29.303Z,99183.84
2023-02-24T06:32:17.689Z,99173.50
2023-02-24T06:33:06.146Z,99174.97
2023-02-24T06:33:56.391Z,99177.44
2023-02-24T06:34:43.518Z,99173.91
2023-02-24T06:35:30.435Z,99178.91
2023-02-24T06:36:17.395Z,99173.34
2023-02-24T06:37:05.839Z,99175.03
2023-02-24T06:37:55.988Z,99178.06
2023-02-24T06:38:43.342Z,99173.28
2023-02-24T06:39:33.454Z,99175.63
2023-02-24T06:40:21.542Z,99177.50
2023-02-24T06:41:11.706Z,99170.03
2023-02-24T06:42:04.045Z,99172.50
2023-02-24T06:42:55.483Z,99174.22
2023-02-24T06:43:46.845Z,99175.03
2023-02-24T06:44:35.172Z,99176.75
2023-02-24T06:45:23.389Z,99167.25
2023-02-24T06:46:12.383Z,99174.91
2023-02-24T06:46:59.463Z,99176.13
2023-02-24T06:47:49.345Z,99171.31
2023-02-24T06:48:36.942Z,99174.47
2023-02-24T06:49:25.237Z,99171.19
2023-02-24T06:50:12.732Z,99173.88
2023-02-24T06:51:05.282Z,99170.41
2023-02-24T06:51:52.529Z,99174.38
2023-02-24T06:52:40.878Z,99170.34
2023-02-24T06:53:27.774Z,99178.97
2023-02-24T06:54:15.954Z,99181.22
2023-02-24T06:55:27.330Z,99166.66
2023-02-24T06:56:18.222Z,99174.34
2023-02-24T06:57:05.107Z,99172.19
2023-02-24T06:57:57.371Z,99170.69
2023-02-24T06:58:45.491Z,99164.66
2023-02-24T06:59:34.462Z,99167.22
2023-02-24T07:00:25.415Z,99166.94
2023-02-24T07:01:18.999Z,99166.75
2023-02-24T07:02:08.275Z,99167.50
2023-02-24T07:02:56.965Z,99162.19
2023-02-24T07:04:02.927Z,99171.03
2023-02-24T07:04:49.832Z,99165.19
2023-02-24T07:05:36.729Z,99166.28
2023-02-24T07:06:24.291Z,99163.94
2023-02-24T07:07:14.575Z,99157.13
2023-02-24T07:08:01.604Z,99160.25
2023-02-24T07:08:48.654Z,99156.38
2023-02-24T07:09:35.734Z,99160.16
2023-02-24T07:10:22.611Z,99154.41
2023-02-24T07:11:09.786Z,99157.25
2023-02-24T07:11:57.161Z,99150.22
2023-02-24T07:12:44.041Z,99155.47
2023-02-24T07:13:31.087Z,99155.63
2023-02-24T07:14:24.262Z,99157.09
2023-02-24T07:15:13.957Z,99156.59
2023-02-24T07:16:07.074Z,99153.91
2023-02-24T07:16:55.018Z,99152.88
2023-02-24T07:17:43.399Z,99161.75
2023-02-24T07:18:31.115Z,99156.63
2023-02-24T07:19:18.022Z,99159.09
2023-02-24T07:20:12.410Z,99163.66
2023-02-24T07:21:05.326Z,99161.59
2023-02-24T07:22:00.232Z,99162.94
2023-02-24T07:22:48.358Z,99162.41
2023-02-24T07:23:35.327Z,99158.25
2023-02-24T07:24:25.416Z,99155.28
2023-02-24T07:25:30.644Z,99155.31
2023-02-24T07:26:19.796Z,99158.44
2023-02-24T07:27:09.640Z,99151.59
2023-02-24T07:27:56.615Z,99152.53
2023-02-24T07:28:44.534Z,99160.84
2023-02-24T07:29:32.660Z,99161.31
2023-02-24T07:30:20.178Z,99153.03
2023-02-24T07:31:17.390Z,99157.00
2023-02-24T07:32:07.161Z,99157.38
2023-02-24T07:32:55.710Z,99158.22
2023-02-24T07:33:45.435Z,99158.44
2023-02-24T07:34:34.086Z,99154.66
2023-02-24T07:35:21.621Z,99157.13
2023-02-24T07:36:08.870Z,99162.28
2023-02-24T07:36:56.635Z,99163.19
2023-02-24T07:37:43.551Z,99152.84
2023-02-24T07:38:30.660Z,99154.28
2023-02-24T07:39:19.655Z,99148.47
2023-02-24T07:40:08.289Z,99152.22
2023-02-24T07:40:58.450Z,99151.78
2023-02-24T07:41:46.730Z,99148.66
2023-02-24T07:42:35.597Z,99152.44
2023-02-24T07:43:22.503Z,99148.75
2023-02-24T07:44:10.850Z,99141.44
2023-02-24T07:44:59.854Z,99153.06
2023-02-24T07:45:47.633Z,99144.53
2023-02-24T07:46:34.598Z,99141.78
2023-02-24T07:47:23.357Z,99143.06
2023-02-24T07:48:12.688Z,99145.16
2023-02-24T07:49:00.188Z,99149.91
2023-02-24T07:49:47.194Z,99139.75
2023-02-24T07:50:35.245Z,99145.34
2023-02-24T07:51:24.403Z,99140.63
2023-02-24T07:52:11.855Z,99141.63
2023-02-24T07:52:59.951Z,99134.16
2023-02-24T07:53:56.889Z,99141.34
2023-02-24T07:54:45.304Z,99138.28
2023-02-24T07:55:36.223Z,99135.97
2023-02-24T07:56:27.271Z,99133.22
2023-02-24T07:57:14.622Z,99132.16
2023-02-24T07:58:03.116Z,99132.59
2023-02-24T07:58:57.954Z,99126.56
2023-02-24T07:59:45.472Z,99129.28
2023-02-24T08:00:50.089Z,99124.31
2023-02-24T08:01:41.077Z,99121.44
2023-02-24T08:02:29.454Z,99119.97
2023-02-24T08:03:16.528Z,99123.06
2023-02-24T08:04:03.450Z,99120.53
2023-02-24T08:04:51.754Z,99128.22
2023-02-24T08:05:38.916Z,99124.72
2023-02-24T08:06:38.032Z,99124.59
2023-02-24T08:07:25.574Z,99117.53
2023-02-24T08:08:13.596Z,99122.53
2023-02-24T08:09:01.508Z,99119.84
2023-02-24T08:10:08.569Z,99116.25
2023-02-24T08:11:04.214Z,99120.84
2023-02-24T08:11:57.650Z,99114.63
2023-02-24T08:12:44.684Z,99125.25
2023-02-24T08:13:37.614Z,99119.66
2023-02-24T08:14:26.671Z,99122.53
2023-02-24T08:15:24.429Z,99117.59
2023-02-24T08:16:11.473Z,99119.44
2023-02-24T08:16:59.734Z,99110.94
2023-02-24T08:17:47.740Z,99102.22
2023-02-24T08:18:37.606Z,99103.47
2023-02-24T08:19:24.957Z,99102.03
2023-02-24T08:20:15.346Z,99098.72
2023-02-24T08:21:04.967Z,99093.69
2023-02-24T08:21:53.585Z,99090.78
2023-02-24T08:22:48.832Z,99090.41
2023-02-24T08:23:44.797Z,99090.16
2023-02-24T08:24:35.952Z,99084.78
2023-02-24T08:25:35.847Z,99087.47
2023-02-24T08:26:30.929Z,99087.47
2023-02-24T08:27:22.597Z,99090.59
2023-02-24T08:28:11.904Z,99086.84
2023-02-24T08:28:59.009Z,99085.19
2023-02-24T08:30:01.624Z,99082.31
2023-02-24T08:30:48.686Z,99070.25
2023-02-24T08:31:35.990Z,99072.94
2023-02-24T08:32:24.504Z,99075.22
2023-02-24T08:33:17.223Z,99076.69
2023-02-24T08:34:04.313Z,99071.91
2023-02-24T08:34:56.908Z,99067.78
2023-02-24T08:35:47.157Z,99067.78
2023-02-24T08:36:34.134Z,99075.25
2023-02-24T08:37:21.162Z,99069.84
2023-02-24T08:38:14.659Z,99075.44
2023-02-24T08:39:01.728Z,99077.94
2023-02-24T08:39:54.211Z,99077.31
2023-02-24T08:40:50.762Z,99073.78
2023-02-24T08:41:51.383Z,99074.22
2023-02-24T08:42:38.327Z,99072.97
2023-02-24T08:43:38.508Z,99078.16
2023-02-24T08:44:29.430Z,99079.37
2023-02-24T08:45:16.361Z,99079.37
2023-02-24T08:46:18.778Z,99080.38
2023-02-24T08:47:07.703Z,99068.94
2023-02-24T08:48:00.797Z,99077.09
2023-02-24T08:48:56.231Z,99080.00
2023-02-24T08:49:45.603Z,99079.37
2023-02-24T08:50:34.024Z,99074.56
2023-02-24T08:51:29.142Z,99078.28
2023-02-24T08:52:16.214Z,99075.16
2023-02-24T08:53:03.143Z,99085.16
2023-02-24T08:53:58.271Z,99077.81
2023-02-24T08:54:49.383Z,99073.03
2023-02-24T08:55:40.129Z,99073.66
2023-02-24T08:56:29.897Z,99074.94
2023-02-24T08:57:18.433Z,99072.84
2023-02-24T08:58:11.314Z,99070.72
2023-02-24T08:59:05.953Z,99078.03
2023-02-24T08:59:59.954Z,99072.66
2023-02-24T09:00:50.376Z,99073.47
2023-02-24T09:01:39.884Z,99068.44
2023-02-24T09:02:29.762Z,99070.06
2023-02-24T09:03:28.228Z,99074.59
2023-02-24T09:04:19.857Z,99074.78
2023-02-24T09:05:14.323Z,99079.44
2023-02-24T09:06:04.792Z,99077.34
2023-02-24T09:07:10.812Z,99069.00
2023-02-24T09:07:58.407Z,99077.31
2023-02-24T09:08:46.682Z,99072.47
2023-02-24T09:09:37.375Z,99071.69
2023-02-24T09:10:24.183Z,99068.53
2023-02-24T09:11:14.164Z,99069.81
2023-02-24T09:12:02.258Z,99075.03
2023-02-24T09:12:49.504Z,99075.47
2023-02-24T09:13:51.871Z,99077.78
2023-02-24T09:14:38.943Z,99080.66
2023-02-24T09:15:25.939Z,99077.75
2023-02-24T09:16:16.728Z,99070.22
2023-02-24T09:17:06.823Z,99068.12
2023-02-24T09:18:07.434Z,99073.09
2023-02-24T09:19:32.635Z,99063.03
2023-02-24T09:20:43.166Z,99072.88
2023-02-24T09:21:48.503Z,99069.47
2023-02-24T09:22:54.213Z,99064.72
2023-02-24T09:23:46.244Z,99062.84
2023-02-24T09:24:33.336Z,99057.00
2023-02-24T09:25:24.363Z,99062.19
2023-02-24T09:26:11.432Z,99062.75
2023-02-24T09:27:01.274Z,99062.53
2023-02-24T09:27:52.561Z,99064.84
2023-02-24T09:28:48.894Z,99057.88
2023-02-24T09:29:35.901Z,99061.22
2023-02-24T09:30:38.463Z,99063.91
2023-02-24T09:31:42.820Z,99052.62
2023-02-24T09:32:29.996Z,99055.81
2023-02-24T09:33:19.059Z,99056.37
2023-02-24T09:34:10.648Z,99053.63
2023-02-24T09:34:57.643Z,99057.81
2023-02-24T09:36:13.226Z,99059.72
2023-02-24T09:37:06.224Z,99057.31
2023-02-24T09:37:57.112Z,99058.44
2023-02-24T09:39:07.670Z,99051.50
2023-02-24T09:39:58.031Z,99046.00
2023-02-24T09:40:50.346Z,99056.50
2023-02-24T09:41:54.308Z,99048.03
2023-02-24T09:42:47.862Z,99045.41
2023-02-24T09:43:44.400Z,99044.81
2023-02-24T09:44:44.518Z,99049.63
2023-02-24T09:45:34.544Z,99049.19
2023-02-24T09:46:21.589Z,99045.75
2023-02-24T09:47:40.014Z,99042.75
2023-02-24T09:48:44.017Z,99042.66
2023-02-24T09:49:40.261Z,99043.47
2023-02-24T09:51:03.144Z,99046.13
2023-02-24T09:52:00.858Z,99042.84
2023-02-24T09:52:52.158Z,99043.47
2023-02-24T09:53:42.657Z,99038.88
2023-02-24T09:54:32.355Z,99043.25
2023-02-24T09:55:46.323Z,99034.66
2023-02-24T09:56:42.742Z,99037.06
2023-02-24T09:57:37.643Z,99034.88
2023-02-24T09:58:48.137Z,99034.66
2023-02-24T09:59:39.556Z,99038.03
2023-02-24T10:00:33.690Z,99041.19
2023-02-24T10:01:48.439Z,99037.34
2023-02-24T10:02:35.318Z,99029.38
2023-02-24T10:03:46.443Z,99034.56
2023-02-24T10:04:54.205Z,99027.78
2023-02-24T10:06:12.488Z,99029.66
2023-02-24T10:06:59.757Z,99026.50
2023-02-24T10:07:46.939Z,99029.53
2023-02-24T10:08:38.485Z,99029.44
2023-02-24T10:09:44.855Z,99028.41